Time;durP1;ratioP1;P1;durP2;ratioP2;P2;SDS_P1;SDS_P2;PMS_P1;PMS_P2;Temp;Humidity;BMP_temperature;BMP_pressure;BME280_temperature;BME280_humidity;BME280_pressure;Samples;Min_cycle;Max_cycle;Signal;HPM_P1;HPM_P2
2023/08/14 00:02:06;;;;;;;440.77;419.37;;;14.60;89.50;;;;;;5077365;28;20186;-65
2023/08/14 00:04:34;;;;;;;415.07;395.20;;;14.70;88.80;;;;;;5073876;28;20279;-66
2023/08/14 00:07:01;;;;;;;388.73;370.03;;;14.70;89.10;;;;;;5077851;28;20757;-66
2023/08/14 00:09:28;;;;;;;389.17;370.70;;;14.80;88.90;;;;;;5074195;28;20659;-65
2023/08/14 00:11:55;;;;;;;386.67;368.23;;;14.80;88.90;;;;;;5077212;28;20187;-65
2023/08/14 00:14:23;;;;;;;360.03;342.93;;;14.80;89.00;;;;;;5084804;28;20269;-65
2023/08/14 00:16:50;;;;;;;330.43;314.63;;;14.90;88.90;;;;;;5072891;28;20195;-66
2023/08/14 00:19:17;;;;;;;333.10;317.03;;;15.00;88.70;;;;;;5076869;28;20190;-66
2023/08/14 00:21:45;;;;;;;332.77;316.87;;;15.30;88.50;;;;;;5078141;28;20232;-66
2023/08/14 00:24:12;;;;;;;239.37;227.70;;;15.50;87.60;;;;;;5071583;28;20786;-66
2023/08/14 00:26:39;;;;;;;234.37;223.03;;;15.60;86.80;;;;;;5080634;28;20178;-66
2023/08/14 00:29:07;;;;;;;202.93;192.90;;;15.50;86.60;;;;;;5080836;28;20766;-65
2023/08/14 00:31:34;;;;;;;154.80;146.70;;;15.50;86.20;;;;;;5071691;28;20232;-66
2023/08/14 00:34:01;;;;;;;116.20;110.10;;;15.70;86.60;;;;;;5075962;28;20555;-66
2023/08/14 00:36:29;;;;;;;91.67;86.87;;;15.90;84.90;;;;;;5074907;28;20209;-66
2023/08/14 00:38:56;;;;;;;68.03;64.20;;;16.20;84.70;;;;;;5076436;28;20234;-65
2023/08/14 00:41:24;;;;;;;53.77;50.77;;;16.20;81.90;;;;;;5080779;28;20177;-66
2023/08/14 00:43:51;;;;;;;45.97;43.00;;;16.00;82.50;;;;;;5074550;28;20189;-72
2023/08/14 00:46:19;;;;;;;45.63;42.93;;;16.00;82.70;;;;;;5078270;28;20187;-65
2023/08/14 00:48:47;;;;;;;31.80;30.00;;;16.00;83.30;;;;;;5079005;28;20252;-65
2023/08/14 00:51:14;;;;;;;26.43;24.83;;;15.90;82.00;;;;;;5081297;28;20189;-65
2023/08/14 00:53:42;;;;;;;30.07;27.93;;;15.70;81.00;;;;;;5074924;28;20277;-65
2023/08/14 00:56:10;;;;;;;19.07;17.87;;;15.80;82.30;;;;;;5068339;28;20204;-72
2023/08/14 00:58:42;;;;;;;19.17;17.87;;;15.70;80.70;;;;;;5074764;28;20190;-68
2023/08/14 01:01:10;;;;;;;16.27;15.07;;;15.60;80.30;;;;;;5076212;28;20202;-70
2023/08/14 01:03:38;;;;;;;16.73;15.63;;;15.60;80.20;;;;;;5077269;28;20178;-74
2023/08/14 01:06:05;;;;;;;17.37;16.27;;;15.80;81.00;;;;;;5074903;28;20186;-71
2023/08/14 01:08:35;;;;;;;18.97;17.60;;;15.80;80.50;;;;;;5080183;28;20271;-64
2023/08/14 01:11:08;;;;;;;17.10;16.00;;;15.80;80.80;;;;;;5075223;28;20603;-64
2023/08/14 01:13:55;;;;;;;19.93;18.63;;;15.80;81.30;;;;;;5080464;28;20189;-67
2023/08/14 01:16:28;;;;;;;23.80;22.30;;;16.00;81.90;;;;;;5071534;28;20199;-66
2023/08/14 01:18:56;;;;;;;24.37;22.77;;;15.90;82.60;;;;;;5074832;28;20178;-67
2023/08/14 01:21:47;;;;;;;28.87;26.90;;;15.80;82.70;;;;;;5079073;28;20175;-69
2023/08/14 01:24:44;;;;;;;30.60;28.70;;;15.70;83.30;;;;;;5070372;28;20193;-67
2023/08/14 01:27:12;;;;;;;30.70;28.90;;;15.80;83.90;;;;;;5017604;28;20194;-69
2023/08/14 01:29:40;;;;;;;30.17;28.27;;;16.00;83.30;;;;;;5078592;28;20249;-67
2023/08/14 01:32:07;;;;;;;25.77;24.27;;;16.30;83.00;;;;;;5067094;28;20212;-68
2023/08/14 01:34:34;;;;;;;19.80;18.60;;;16.30;82.30;;;;;;5080333;28;20193;-67
2023/08/14 01:37:26;;;;;;;16.57;15.37;;;16.30;80.70;;;;;;5073027;28;20280;-66
2023/08/14 01:40:52;;;;;;;14.67;13.57;;;16.60;79.90;;;;;;5072705;28;20186;-64
2023/08/14 01:43:32;;;;;;;12.47;11.37;;;16.70;79.10;;;;;;5034434;28;20666;-72
2023/08/14 01:45:59;;;;;;;11.43;10.73;;;16.60;79.70;;;;;;5032043;28;20181;-64
2023/08/14 01:48:28;;;;;;;10.13;9.43;;;16.70;79.30;;;;;;5058089;28;20304;-69
2023/08/14 01:50:57;;;;;;;11.30;10.50;;;16.50;78.90;;;;;;5066009;28;20179;-66
2023/08/14 01:53:25;;;;;;;7.73;7.13;;;16.60;79.60;;;;;;5059938;28;20179;-63
2023/08/14 01:55:52;;;;;;;6.97;6.47;;;16.40;77.70;;;;;;5082306;28;20186;-66
2023/08/14 01:58:19;;;;;;;7.30;6.73;;;16.50;77.70;;;;;;5075142;28;20196;-65
2023/08/14 02:00:47;;;;;;;6.20;5.80;;;16.60;77.90;;;;;;5069334;28;20190;-65
2023/08/14 02:03:14;;;;;;;6.80;6.10;;;16.50;77.70;;;;;;5074834;28;20270;-64
2023/08/14 02:05:41;;;;;;;5.20;4.80;;;16.60;77.50;;;;;;5071143;28;20190;-64
2023/08/14 02:08:08;;;;;;;5.80;5.40;;;16.60;77.10;;;;;;5068437;28;20283;-63
2023/08/14 02:10:36;;;;;;;5.07;4.77;;;16.50;77.20;;;;;;5070914;28;20555;-63
2023/08/14 02:13:03;;;;;;;5.03;4.70;;;16.30;76.70;;;;;;5074589;28;20185;-63
2023/08/14 02:15:30;;;;;;;6.13;5.73;;;16.30;77.30;;;;;;5073552;28;20179;-64
2023/08/14 02:17:58;;;;;;;6.97;6.03;;;16.50;77.80;;;;;;5073457;28;20192;-71
2023/08/14 02:20:26;;;;;;;6.30;5.80;;;16.60;77.90;;;;;;5072574;28;20654;-64
2023/08/14 02:22:53;;;;;;;4.90;4.50;;;16.70;77.40;;;;;;5073952;28;20192;-64
2023/08/14 02:25:20;;;;;;;4.97;4.67;;;16.70;75.80;;;;;;5071718;28;20186;-64
2023/08/14 02:27:48;;;;;;;4.10;3.80;;;16.90;76.10;;;;;;5070500;28;20220;-64
2023/08/14 02:30:15;;;;;;;3.83;3.60;;;17.00;74.80;;;;;;5072803;28;20668;-64
2023/08/14 02:32:42;;;;;;;3.70;3.37;;;17.00;74.60;;;;;;5050586;28;20191;-64
2023/08/14 02:35:10;;;;;;;2.87;2.67;;;17.20;74.00;;;;;;5077520;28;20233;-63
2023/08/14 02:37:37;;;;;;;3.50;3.30;;;17.10;72.20;;;;;;5069460;28;20175;-66
2023/08/14 02:40:05;;;;;;;3.93;3.43;;;17.20;73.80;;;;;;5073853;28;20664;-64
2023/08/14 02:42:32;;;;;;;3.33;3.10;;;17.30;73.70;;;;;;5071452;28;20730;-64
2023/08/14 02:44:59;;;;;;;2.90;2.70;;;17.20;73.20;;;;;;5059523;28;20210;-65
2023/08/14 02:47:27;;;;;;;3.20;3.00;;;17.00;73.00;;;;;;5073187;28;20186;-65
2023/08/14 02:49:54;;;;;;;3.30;3.00;;;16.80;73.80;;;;;;5076945;28;20668;-65
2023/08/14 02:52:21;;;;;;;3.00;2.80;;;16.60;74.20;;;;;;5071431;28;20190;-65
2023/08/14 02:54:49;;;;;;;3.57;3.20;;;16.40;75.00;;;;;;5077270;28;20646;-65
2023/08/14 02:57:16;;;;;;;3.90;3.60;;;16.30;75.40;;;;;;5078263;28;20183;-65
2023/08/14 02:59:43;;;;;;;3.73;3.43;;;16.30;76.40;;;;;;5079039;28;20197;-64
2023/08/14 03:02:11;;;;;;;5.43;4.93;;;16.30;77.00;;;;;;5079321;28;20186;-64
2023/08/14 03:04:38;;;;;;;6.30;5.70;;;16.20;76.90;;;;;;5080966;28;20193;-65
2023/08/14 03:07:05;;;;;;;6.80;6.20;;;16.00;77.90;;;;;;5079622;28;20246;-65
2023/08/14 03:09:32;;;;;;;6.93;6.27;;;15.90;78.60;;;;;;5083299;28;20546;-65
2023/08/14 03:12:00;;;;;;;7.27;6.77;;;15.80;79.10;;;;;;5076861;28;20195;-65
2023/08/14 03:14:27;;;;;;;8.33;7.63;;;15.80;79.70;;;;;;5082795;28;20293;-65
2023/08/14 03:16:54;;;;;;;8.17;7.40;;;15.80;80.30;;;;;;5061490;28;20192;-64
2023/08/14 03:19:22;;;;;;;9.80;9.00;;;15.80;80.20;;;;;;5074656;28;20217;-65
2023/08/14 03:21:52;;;;;;;11.60;10.70;;;15.70;81.30;;;;;;5077992;28;20186;-65
2023/08/14 03:24:20;;;;;;;18.10;16.60;;;15.50;82.50;;;;;;5076889;28;20179;-64
2023/08/14 03:26:49;;;;;;;28.50;26.63;;;15.60;84.20;;;;;;5068777;28;20209;-64
2023/08/14 03:29:16;;;;;;;40.13;37.77;;;15.40;84.90;;;;;;5080028;28;20291;-67
2023/08/14 03:31:43;;;;;;;55.63;52.50;;;15.40;85.70;;;;;;5076661;28;20207;-66
2023/08/14 03:34:11;;;;;;;63.90;60.30;;;15.40;86.50;;;;;;5078226;28;20199;-64
2023/08/14 03:36:38;;;;;;;62.40;59.10;;;15.20;86.70;;;;;;5076675;28;20195;-64
2023/08/14 03:39:05;;;;;;;60.93;57.60;;;15.20;87.00;;;;;;5079392;28;20187;-64
2023/08/14 03:41:33;;;;;;;72.50;68.70;;;15.20;87.20;;;;;;5077163;28;20232;-64
2023/08/14 03:44:00;;;;;;;83.50;79.07;;;15.30;87.30;;;;;;5077482;28;20188;-66
2023/08/14 03:46:27;;;;;;;81.77;77.33;;;15.30;87.40;;;;;;5077146;28;20277;-67
2023/08/14 03:48:57;;;;;;;86.67;82.27;;;15.30;87.20;;;;;;5076831;28;20265;-64
2023/08/14 03:51:28;;;;;;;107.67;102.13;;;15.30;87.00;;;;;;5078450;28;20173;-69
2023/08/14 03:53:58;;;;;;;135.70;128.90;;;15.30;87.30;;;;;;5058072;28;20241;-65
2023/08/14 03:56:25;;;;;;;162.60;154.27;;;15.20;87.80;;;;;;5076928;28;20179;-65
2023/08/14 03:58:52;;;;;;;248.70;236.90;;;15.00;88.60;;;;;;5080410;28;20182;-64
2023/08/14 04:01:20;;;;;;;305.20;290.73;;;14.90;89.50;;;;;;5076174;28;20202;-67
2023/08/14 04:03:47;;;;;;;351.93;335.70;;;14.80;90.50;;;;;;5076392;28;20190;-65
2023/08/14 04:06:15;;;;;;;402.20;383.60;;;14.60;90.80;;;;;;5075212;28;20187;-65
2023/08/14 04:08:42;;;;;;;477.87;454.80;;;14.30;91.10;;;;;;5077053;28;20230;-67
2023/08/14 04:11:11;;;;;;;505.67;480.40;;;14.00;92.30;;;;;;5076833;28;20620;-64
2023/08/14 04:13:38;;;;;;;540.50;512.90;;;14.00;92.70;;;;;;5074698;28;20188;-68
2023/08/14 04:16:05;;;;;;;561.20;532.07;;;14.00;93.00;;;;;;5077130;28;20634;-71
2023/08/14 04:18:34;;;;;;;588.33;557.00;;;13.90;92.80;;;;;;5069485;28;20187;-71
2023/08/14 04:21:01;;;;;;;618.27;584.67;;;14.00;93.30;;;;;;5073626;28;20192;-66
2023/08/14 04:23:30;;;;;;;619.03;585.30;;;13.90;93.20;;;;;;5081294;28;20190;-66
2023/08/14 04:25:57;;;;;;;641.80;606.37;;;13.90;93.30;;;;;;5061291;28;20187;-72
2023/08/14 04:28:25;;;;;;;663.30;625.83;;;13.90;93.30;;;;;;5084476;28;20190;-68
2023/08/14 04:30:52;;;;;;;682.57;642.93;;;14.00;93.40;;;;;;5076633;28;20183;-65
2023/08/14 04:33:19;;;;;;;695.70;654.87;;;13.90;93.30;;;;;;5081549;28;20210;-66
2023/08/14 04:35:47;;;;;;;712.30;670.10;;;13.80;93.40;;;;;;5077582;28;20187;-65
2023/08/14 04:38:14;;;;;;;716.97;674.67;;;13.90;93.50;;;;;;5082176;28;20638;-70
2023/08/14 04:40:41;;;;;;;702.60;660.97;;;13.80;93.50;;;;;;5077554;28;20663;-66
2023/08/14 04:43:09;;;;;;;713.33;671.07;;;13.70;93.40;;;;;;5081180;28;20179;-66
2023/08/14 04:45:36;;;;;;;716.53;673.93;;;13.70;93.50;;;;;;5077097;28;20232;-72
2023/08/14 04:48:08;;;;;;;715.70;672.70;;;13.80;93.50;;;;;;5079011;28;20198;-68
2023/08/14 04:50:35;;;;;;;724.60;680.43;;;13.70;93.60;;;;;;5077527;28;20242;-72
2023/08/14 04:53:03;;;;;;;728.30;683.53;;;13.70;93.40;;;;;;5073324;28;20215;-70
2023/08/14 04:55:30;;;;;;;749.00;703.13;;;13.80;93.60;;;;;;5077102;28;20186;-71
2023/08/14 04:57:57;;;;;;;756.90;710.40;;;13.80;93.60;;;;;;5077749;28;20191;-69
2023/08/14 05:00:25;;;;;;;751.60;705.60;;;13.80;93.50;;;;;;5076262;28;20270;-66
2023/08/14 05:02:52;;;;;;;764.57;717.97;;;13.90;93.60;;;;;;5076293;28;20183;-68
2023/08/14 05:05:19;;;;;;;771.23;723.70;;;13.90;93.50;;;;;;5076548;28;20175;-66
2023/08/14 05:07:47;;;;;;;767.53;720.43;;;13.90;93.60;;;;;;5074639;28;20701;-66
2023/08/14 05:10:15;;;;;;;755.13;708.53;;;13.80;93.40;;;;;;5076011;28;20216;-64
2023/08/14 05:12:42;;;;;;;768.10;720.83;;;13.80;93.40;;;;;;5075791;28;20198;-64
2023/08/14 05:15:10;;;;;;;781.93;733.83;;;13.70;93.40;;;;;;5076901;28;20182;-65
2023/08/14 05:17:38;;;;;;;780.93;733.17;;;13.70;93.50;;;;;;5072013;28;20206;-67
2023/08/14 05:20:06;;;;;;;802.27;753.10;;;13.70;93.40;;;;;;5076179;28;20210;-65
2023/08/14 05:22:33;;;;;;;784.87;736.70;;;13.70;93.50;;;;;;5077829;28;20233;-65
2023/08/14 05:25:01;;;;;;;790.80;742.27;;;13.80;93.50;;;;;;5074157;28;20187;-64
2023/08/14 05:27:28;;;;;;;778.90;731.00;;;13.70;93.20;;;;;;5075715;28;20183;-67
2023/08/14 05:29:56;;;;;;;782.77;734.97;;;13.60;93.30;;;;;;5072050;28;20226;-65
2023/08/14 05:32:23;;;;;;;779.63;731.93;;;13.50;93.20;;;;;;5073302;28;20179;-64
2023/08/14 05:34:50;;;;;;;767.87;721.00;;;13.40;93.10;;;;;;5073845;28;20273;-66
2023/08/14 05:37:17;;;;;;;777.80;730.00;;;13.30;93.10;;;;;;5072043;28;20768;-64
2023/08/14 05:39:45;;;;;;;790.70;741.73;;;13.30;93.20;;;;;;5064050;28;20191;-65
2023/08/14 05:42:12;;;;;;;783.00;734.83;;;13.40;93.30;;;;;;5074623;28;20228;-65
2023/08/14 05:44:39;;;;;;;792.33;743.60;;;13.40;93.10;;;;;;5070949;28;20185;-65
2023/08/14 05:47:07;;;;;;;799.70;750.13;;;13.50;93.30;;;;;;5067097;28;20190;-64
2023/08/14 05:49:34;;;;;;;778.23;729.87;;;13.50;93.30;;;;;;5066875;28;20218;-65
2023/08/14 05:52:01;;;;;;;775.97;727.87;;;13.40;92.90;;;;;;5072941;28;20188;-65
2023/08/14 05:54:28;;;;;;;776.23;728.23;;;13.40;93.00;;;;;;5070662;28;20195;-66
2023/08/14 05:56:56;;;;;;;777.33;728.67;;;13.60;93.20;;;;;;5072131;28;20190;-64
2023/08/14 05:59:23;;;;;;;783.70;734.57;;;13.60;92.90;;;;;;5075367;28;20179;-64
2023/08/14 06:01:50;;;;;;;790.60;741.43;;;13.50;92.90;;;;;;5067893;28;20185;-65
2023/08/14 06:04:18;;;;;;;792.63;743.20;;;13.50;93.00;;;;;;5072423;28;20180;-64
2023/08/14 06:06:48;;;;;;;789.67;740.47;;;13.50;92.90;;;;;;5068829;28;20218;-64
2023/08/14 06:09:17;;;;;;;786.47;737.23;;;13.60;92.90;;;;;;5074379;28;20222;-64
2023/08/14 06:11:47;;;;;;;770.70;722.57;;;13.50;92.80;;;;;;5064469;28;20183;-64
2023/08/14 06:14:15;;;;;;;769.60;721.63;;;13.40;92.70;;;;;;5075747;28;20182;-70
2023/08/14 06:16:42;;;;;;;780.53;732.03;;;13.40;92.80;;;;;;5067732;28;20541;-64
2023/08/14 06:19:09;;;;;;;782.10;733.87;;;13.50;92.90;;;;;;5075925;28;20190;-65
2023/08/14 06:21:37;;;;;;;777.73;730.13;;;13.50;93.00;;;;;;5073590;28;20274;-64
2023/08/14 06:24:04;;;;;;;781.23;733.33;;;13.50;92.90;;;;;;5067310;28;20195;-65
2023/08/14 06:26:32;;;;;;;767.93;720.30;;;13.50;92.90;;;;;;5070147;28;20191;-65
2023/08/14 06:28:59;;;;;;;777.80;729.63;;;13.50;92.90;;;;;;5079346;28;20215;-67
2023/08/14 06:31:26;;;;;;;774.10;726.03;;;13.50;93.00;;;;;;5073010;28;20187;-65
2023/08/14 06:33:54;;;;;;;756.53;710.27;;;13.50;92.90;;;;;;5072434;28;20191;-64
2023/08/14 06:36:21;;;;;;;743.47;698.03;;;13.40;92.80;;;;;;5075113;28;20270;-66
2023/08/14 06:38:48;;;;;;;742.47;696.90;;;13.40;92.60;;;;;;5073851;28;20278;-64
2023/08/14 06:41:15;;;;;;;712.83;669.73;;;13.40;92.60;;;;;;5080305;28;20187;-69
2023/08/14 06:43:44;;;;;;;690.67;649.97;;;13.40;92.60;;;;;;5073150;28;20221;-65
2023/08/14 06:46:12;;;;;;;668.53;629.73;;;13.40;92.40;;;;;;5079534;28;20182;-65
2023/08/14 06:48:39;;;;;;;674.43;635.30;;;13.40;92.40;;;;;;5074695;28;20253;-67
2023/08/14 06:51:06;;;;;;;664.03;625.93;;;13.40;92.10;;;;;;5078511;28;20636;-65
2023/08/14 06:53:34;;;;;;;660.27;621.87;;;13.50;92.00;;;;;;5077210;28;20514;-65
2023/08/14 06:56:01;;;;;;;642.77;605.83;;;13.40;91.70;;;;;;5078722;28;20191;-65
2023/08/14 06:58:29;;;;;;;657.30;619.30;;;13.50;91.50;;;;;;5075037;28;20183;-64
2023/08/14 07:00:56;;;;;;;661.17;623.03;;;13.40;91.50;;;;;;5069237;28;20680;-65
2023/08/14 07:03:24;;;;;;;655.03;617.63;;;13.40;91.40;;;;;;5052742;28;20668;-67
2023/08/14 07:05:51;;;;;;;660.57;623.00;;;13.40;91.50;;;;;;5070738;28;20190;-66
2023/08/14 07:08:18;;;;;;;668.30;629.77;;;13.40;91.50;;;;;;5070183;28;20693;-65
2023/08/14 07:10:46;;;;;;;639.90;603.43;;;13.40;91.50;;;;;;5075447;28;20231;-65
2023/08/14 07:13:14;;;;;;;631.50;596.07;;;13.30;91.40;;;;;;5070905;28;20571;-67
2023/08/14 07:15:41;;;;;;;625.63;590.70;;;13.30;91.50;;;;;;5078384;28;20645;-66
2023/08/14 07:18:09;;;;;;;625.57;590.70;;;13.20;91.50;;;;;;5073939;28;20277;-67
2023/08/14 07:20:36;;;;;;;622.20;587.50;;;13.30;91.50;;;;;;5078485;28;20272;-64
2023/08/14 07:23:04;;;;;;;628.07;593.03;;;13.20;91.60;;;;;;5069310;28;20183;-65
2023/08/14 07:25:31;;;;;;;635.97;599.90;;;13.20;91.50;;;;;;5074633;28;20175;-66
2023/08/14 07:27:58;;;;;;;624.67;589.77;;;13.20;91.60;;;;;;5055564;28;20723;-65
2023/08/14 07:30:26;;;;;;;633.40;597.63;;;13.20;91.60;;;;;;5077167;28;20281;-66
2023/08/14 07:32:53;;;;;;;637.67;601.60;;;13.20;91.50;;;;;;5075010;28;20186;-66
2023/08/14 07:35:20;;;;;;;633.20;597.37;;;13.20;91.50;;;;;;5073905;28;20262;-65
2023/08/14 07:37:48;;;;;;;642.77;606.43;;;13.20;91.40;;;;;;5071685;28;20658;-66
2023/08/14 07:40:15;;;;;;;632.87;597.33;;;13.20;91.50;;;;;;5077175;28;20176;-65
2023/08/14 07:42:42;;;;;;;643.07;606.77;;;13.20;91.50;;;;;;5078379;28;20661;-64
2023/08/14 07:45:10;;;;;;;649.83;612.63;;;13.20;91.60;;;;;;5080238;28;20211;-65
2023/08/14 07:47:37;;;;;;;661.07;622.97;;;13.20;91.60;;;;;;5078389;28;20239;-66
2023/08/14 07:50:05;;;;;;;665.37;626.50;;;13.20;91.70;;;;;;5079088;28;20211;-65
2023/08/14 07:52:34;;;;;;;667.07;628.27;;;13.20;91.60;;;;;;5077947;28;20266;-64
2023/08/14 07:55:02;;;;;;;675.07;635.43;;;13.20;91.60;;;;;;5057312;28;20645;-64
2023/08/14 07:57:30;;;;;;;676.60;636.70;;;13.20;91.60;;;;;;5078761;28;20178;-65
2023/08/14 07:59:57;;;;;;;683.73;643.53;;;13.20;91.70;;;;;;5075380;28;20187;-64
2023/08/14 08:02:24;;;;;;;694.20;652.93;;;13.20;91.70;;;;;;5080434;28;20514;-66
2023/08/14 08:04:52;;;;;;;715.13;672.17;;;13.30;91.80;;;;;;5074205;28;20267;-68
2023/08/14 08:07:19;;;;;;;714.63;671.73;;;13.30;91.90;;;;;;5079718;28;20218;-65
2023/08/14 08:09:46;;;;;;;703.47;661.27;;;13.30;91.80;;;;;;5068164;28;20215;-66
2023/08/14 08:12:15;;;;;;;719.83;676.37;;;13.30;91.80;;;;;;5077589;28;20261;-65
2023/08/14 08:14:42;;;;;;;722.20;679.13;;;13.40;92.00;;;;;;5082309;28;20604;-65
2023/08/14 08:17:09;;;;;;;700.63;659.13;;;13.40;91.90;;;;;;5071274;28;20275;-66
2023/08/14 08:19:36;;;;;;;695.57;654.30;;;13.30;91.80;;;;;;5077906;28;20636;-65
2023/08/14 08:22:04;;;;;;;708.13;666.23;;;13.30;91.80;;;;;;5073204;28;20192;-67
2023/08/14 08:24:31;;;;;;;691.87;651.50;;;13.40;91.80;;;;;;5073344;28;20548;-65
2023/08/14 08:26:58;;;;;;;707.47;665.97;;;13.40;91.80;;;;;;5073213;28;20612;-65
2023/08/14 08:29:26;;;;;;;705.10;663.23;;;13.40;91.90;;;;;;5079958;28;20207;-66
2023/08/14 08:31:53;;;;;;;715.77;673.57;;;13.40;91.80;;;;;;5076788;28;20190;-64
2023/08/14 08:34:20;;;;;;;716.50;674.03;;;13.50;91.90;;;;;;5078996;28;20598;-64
2023/08/14 08:36:47;;;;;;;722.83;679.43;;;13.50;91.80;;;;;;5071906;28;20183;-64
2023/08/14 08:39:15;;;;;;;728.07;683.93;;;13.50;91.80;;;;;;5075975;28;20649;-65
2023/08/14 08:41:46;;;;;;;744.13;698.67;;;13.50;91.90;;;;;;5073735;28;20180;-64
2023/08/14 08:44:25;;;;;;;740.17;695.20;;;13.50;92.00;;;;;;5077120;28;20650;-66
2023/08/14 08:47:06;;;;;;;750.47;704.43;;;13.50;92.10;;;;;;5074559;28;20194;-64
2023/08/14 08:49:35;;;;;;;755.90;709.80;;;13.50;92.10;;;;;;5076930;28;20272;-65
2023/08/14 08:52:05;;;;;;;751.50;705.53;;;13.40;92.10;;;;;;5073684;28;20187;-64
2023/08/14 08:54:33;;;;;;;760.50;713.67;;;13.30;92.10;;;;;;5078622;28;20281;-67
2023/08/14 08:57:02;;;;;;;766.67;719.43;;;13.30;92.10;;;;;;5078106;28;20356;-73
2023/08/14 08:59:29;;;;;;;769.00;721.47;;;13.30;92.30;;;;;;5076435;28;20206;-66
2023/08/14 09:02:00;;;;;;;770.07;722.50;;;13.30;92.30;;;;;;5075959;28;20641;-66
2023/08/14 09:04:27;;;;;;;778.67;730.47;;;13.30;92.40;;;;;;5074349;28;20209;-64
2023/08/14 09:06:56;;;;;;;780.43;732.30;;;13.30;92.40;;;;;;5074964;28;20183;-63
2023/08/14 09:09:23;;;;;;;781.00;732.57;;;13.20;92.40;;;;;;5058581;28;20218;-65
2023/08/14 09:11:51;;;;;;;782.63;734.13;;;13.20;92.50;;;;;;5077010;28;20179;-66
2023/08/14 09:14:18;;;;;;;792.53;743.17;;;13.20;92.60;;;;;;5077126;28;20179;-64
2023/08/14 09:16:53;;;;;;;793.63;744.27;;;13.20;92.70;;;;;;5082654;28;20216;-67
2023/08/14 09:19:21;;;;;;;795.20;745.43;;;13.10;92.70;;;;;;5066054;28;20178;-65
2023/08/14 09:21:51;;;;;;;798.27;748.53;;;13.10;92.80;;;;;;5080248;28;20607;-64
2023/08/14 09:24:20;;;;;;;806.80;756.27;;;13.00;92.80;;;;;;5080065;28;20191;-62
2023/08/14 09:26:49;;;;;;;820.77;769.43;;;13.00;92.90;;;;;;5077571;28;20175;-64
2023/08/14 09:29:17;;;;;;;825.13;773.50;;;13.00;92.90;;;;;;5075797;28;20233;-67
2023/08/14 09:31:46;;;;;;;831.67;779.17;;;13.00;93.00;;;;;;5076862;28;20206;-67
2023/08/14 09:34:20;;;;;;;826.57;774.43;;;13.00;93.10;;;;;;5063260;28;20236;-70
2023/08/14 09:36:48;;;;;;;827.30;775.27;;;12.90;93.00;;;;;;5076408;28;20206;-65
2023/08/14 09:39:15;;;;;;;827.80;775.80;;;12.90;93.00;;;;;;5079209;28;20221;-66
2023/08/14 09:41:47;;;;;;;839.93;786.93;;;12.90;93.10;;;;;;5075665;28;20176;-70
2023/08/14 09:44:18;;;;;;;829.30;777.50;;;12.90;93.20;;;;;;5060581;28;20183;-65
2023/08/14 09:46:54;;;;;;;830.80;778.97;;;12.80;93.10;;;;;;5073420;28;20641;-68
2023/08/14 09:49:22;;;;;;;840.50;788.13;;;12.80;93.10;;;;;;5081323;28;20245;-65
2023/08/14 09:51:59;;;;;;;844.00;791.37;;;12.80;93.20;;;;;;5059558;28;20645;-69
2023/08/14 09:54:35;;;;;;;846.17;793.17;;;12.80;93.10;;;;;;5072696;28;20275;-65
2023/08/14 09:57:06;;;;;;;851.97;797.87;;;12.80;93.30;;;;;;5072059;28;20183;-63
2023/08/14 09:59:43;;;;;;;848.47;794.67;;;12.80;93.30;;;;;;5070320;28;20292;-64
2023/08/14 10:02:15;;;;;;;848.27;794.70;;;12.80;93.10;;;;;;5069364;28;20191;-65
2023/08/14 10:04:53;;;;;;;855.13;800.63;;;12.70;93.30;;;;;;5064219;28;20199;-65
2023/08/14 10:07:26;;;;;;;855.00;800.33;;;12.70;93.20;;;;;;5071494;28;20225;-66
2023/08/14 10:09:56;;;;;;;846.03;792.30;;;12.80;93.40;;;;;;5071775;28;20214;-64
2023/08/14 10:12:42;;;;;;;855.33;801.00;;;12.80;93.30;;;;;;5074395;28;20182;-70
2023/08/14 10:15:17;;;;;;;870.20;815.30;;;12.80;93.40;;;;;;5074105;28;20183;-67
2023/08/14 10:17:59;;;;;;;875.93;820.13;;;12.80;93.40;;;;;;5075430;28;20182;-70
2023/08/14 10:20:31;;;;;;;876.70;820.97;;;12.80;93.40;;;;;;5074521;28;20187;-66
2023/08/14 10:22:59;;;;;;;872.50;817.10;;;12.70;93.40;;;;;;5072838;28;20187;-63
2023/08/14 10:25:28;;;;;;;869.77;814.67;;;12.70;93.50;;;;;;5073757;28;20274;-64
2023/08/14 10:27:56;;;;;;;859.87;805.00;;;12.70;93.50;;;;;;5068288;28;20830;-65
2023/08/14 10:30:25;;;;;;;869.07;813.57;;;12.70;93.50;;;;;;5070543;28;20323;-64
2023/08/14 10:32:54;;;;;;;874.23;817.33;;;12.70;93.50;;;;;;5081171;28;20594;-66
2023/08/14 10:35:23;;;;;;;876.03;819.43;;;12.70;93.60;;;;;;5059294;28;20183;-64
2023/08/14 10:37:52;;;;;;;870.03;813.63;;;12.70;93.60;;;;;;5064756;28;20649;-68
2023/08/14 10:40:22;;;;;;;861.67;805.87;;;12.70;93.70;;;;;;5071405;28;20175;-65
2023/08/14 10:42:58;;;;;;;857.27;801.93;;;12.60;93.50;;;;;;5068356;28;20182;-68
2023/08/14 10:45:28;;;;;;;873.60;817.07;;;12.60;93.60;;;;;;5065129;28;20193;-64
2023/08/14 10:48:10;;;;;;;869.43;812.83;;;12.60;93.60;;;;;;5070531;28;20603;-65
2023/08/14 10:50:37;;;;;;;864.20;807.80;;;12.60;93.60;;;;;;5070413;28;20589;-65
2023/08/14 10:53:06;;;;;;;873.33;816.13;;;12.60;93.60;;;;;;5070971;28;20190;-64
2023/08/14 10:55:44;;;;;;;869.47;813.07;;;12.60;93.60;;;;;;5072465;28;20191;-68
2023/08/14 10:58:31;;;;;;;866.27;809.73;;;12.50;93.60;;;;;;5071058;28;20518;-73
2023/08/14 11:01:03;;;;;;;872.40;816.43;;;12.50;93.60;;;;;;5074848;28;20183;-65
2023/08/14 11:03:34;;;;;;;877.63;821.33;;;12.40;93.60;;;;;;5067752;28;20244;-64
2023/08/14 11:06:01;;;;;;;876.70;820.00;;;12.40;93.60;;;;;;5074551;28;20187;-65
2023/08/14 11:08:31;;;;;;;876.70;819.80;;;12.50;93.70;;;;;;5075613;28;20226;-64
2023/08/14 11:10:59;;;;;;;879.80;822.70;;;12.40;93.50;;;;;;5074773;28;20187;-66
2023/08/14 11:13:29;;;;;;;878.73;821.43;;;12.40;93.50;;;;;;5072768;28;20191;-65
2023/08/14 11:15:57;;;;;;;872.50;815.87;;;12.40;93.60;;;;;;5075492;28;20198;-71
2023/08/14 11:18:24;;;;;;;867.33;811.23;;;12.40;93.50;;;;;;5077779;28;20193;-65
2023/08/14 11:20:52;;;;;;;865.53;809.83;;;12.30;93.40;;;;;;5077534;28;20182;-66
2023/08/14 11:23:19;;;;;;;879.17;822.50;;;12.40;93.60;;;;;;5076781;28;20180;-72
2023/08/14 11:25:46;;;;;;;874.67;818.17;;;12.40;93.60;;;;;;5076556;28;20274;-64
2023/08/14 11:28:28;;;;;;;869.87;813.40;;;12.30;93.40;;;;;;5079176;28;20206;-64
2023/08/14 11:30:56;;;;;;;869.37;813.37;;;12.30;93.40;;;;;;5079807;28;20314;-71
2023/08/14 11:33:26;;;;;;;858.77;803.53;;;12.30;93.40;;;;;;5075233;28;20222;-72
2023/08/14 11:35:54;;;;;;;862.63;807.20;;;12.30;93.40;;;;;;5070568;28;22056;-74
2023/08/14 11:38:25;;;;;;;855.93;801.20;;;12.20;93.40;;;;;;5073929;28;20190;-64
2023/08/14 11:40:52;;;;;;;865.83;810.00;;;12.20;93.40;;;;;;5077631;28;20590;-69
2023/08/14 11:43:22;;;;;;;860.47;805.17;;;12.20;93.40;;;;;;5073898;28;20270;-73
2023/08/14 11:45:50;;;;;;;865.70;809.77;;;12.10;93.40;;;;;;5076296;28;20216;-73
2023/08/14 11:48:18;;;;;;;865.87;809.73;;;12.10;93.40;;;;;;5072326;28;20194;-73
2023/08/14 11:50:50;;;;;;;877.43;820.27;;;12.10;93.50;;;;;;5077879;28;20223;-66
2023/08/14 11:53:17;;;;;;;883.67;826.30;;;12.10;93.50;;;;;;5074736;28;20186;-66
2023/08/14 11:55:45;;;;;;;890.53;833.17;;;12.10;93.50;;;;;;5075922;28;20565;-67
2023/08/14 11:58:14;;;;;;;888.70;831.30;;;12.10;93.50;;;;;;5080086;28;20186;-67
2023/08/14 12:00:42;;;;;;;890.13;832.50;;;12.10;93.50;;;;;;5077685;28;20282;-67
2023/08/14 12:03:11;;;;;;;891.43;833.90;;;12.00;93.40;;;;;;5079006;28;20559;-65
2023/08/14 12:05:39;;;;;;;884.47;827.60;;;12.10;93.50;;;;;;5075001;28;20194;-67
2023/08/14 12:08:06;;;;;;;884.60;827.63;;;12.10;93.50;;;;;;5080509;28;20222;-65
2023/08/14 12:10:34;;;;;;;876.57;820.20;;;12.10;93.50;;;;;;5080679;28;20211;-66
2023/08/14 12:13:01;;;;;;;868.67;812.77;;;12.10;93.50;;;;;;5082269;28;20218;-66
2023/08/14 12:15:31;;;;;;;850.83;796.30;;;12.00;93.40;;;;;;5076495;28;20261;-65
2023/08/14 12:17:58;;;;;;;852.97;798.27;;;12.00;93.30;;;;;;5076015;28;20195;-66
2023/08/14 12:20:30;;;;;;;848.57;794.07;;;12.00;93.40;;;;;;5071502;28;20175;-65
2023/08/14 12:23:15;;;;;;;844.17;790.37;;;12.00;93.30;;;;;;5077641;28;20556;-65
2023/08/14 12:25:43;;;;;;;842.37;788.67;;;11.90;93.40;;;;;;5073523;28;20582;-64